createdAt,value
2022-08-05T00:02:17.522Z,61.85
2022-08-05T00:05:05.783Z,62.07
2022-08-05T00:08:05.311Z,62.29
2022-08-05T00:11:01.502Z,62.32
2022-08-05T00:13:39.539Z,62.50
2022-08-05T00:16:17.347Z,62.66
2022-08-05T00:19:55.410Z,63.07
2022-08-05T00:22:41.823Z,63.19
2022-08-05T00:25:45.662Z,63.34
2022-08-05T00:28:31.907Z,63.56
2022-08-05T00:31:10.956Z,63.56
2022-08-05T00:34:53.307Z,63.76
2022-08-05T00:37:11.882Z,63.76
2022-08-05T00:39:58.751Z,63.98
2022-08-05T00:42:41.699Z,64.10
2022-08-05T00:45:28.080Z,64.17
2022-08-05T00:48:27.475Z,64.36
2022-08-05T00:51:50.571Z,64.50
2022-08-05T00:54:36.791Z,64.59
2022-08-05T01:01:48.769Z,64.83
2022-08-05T01:04:59.987Z,65.07
2022-08-05T01:08:42.276Z,65.16
2022-08-05T01:11:13.871Z,65.32
2022-08-05T01:14:15.527Z,65.33
2022-08-05T01:17:08.176Z,65.64
2022-08-05T01:20:22.301Z,65.77
2022-08-05T01:23:14.438Z,65.93
2022-08-05T01:26:04.843Z,65.99
2022-08-05T01:29:05.122Z,66.25
2022-08-05T01:31:55.734Z,66.49
2022-08-05T01:34:46.846Z,66.75
2022-08-05T01:37:44.292Z,66.78
2022-08-05T01:40:34.768Z,66.89
2022-08-05T01:43:32.126Z,67.13
2022-08-05T01:46:46.706Z,67.20
2022-08-05T01:50:00.358Z,67.27
2022-08-05T01:53:17.543Z,67.52
2022-08-05T01:58:10.553Z,67.59
2022-08-05T02:00:11.588Z,67.73
2022-08-05T02:02:57.729Z,67.82
2022-08-05T02:06:24.023Z,67.97
2022-08-05T02:09:44.440Z,68.06
2022-08-05T02:12:37.598Z,68.07
2022-08-05T02:15:25.536Z,68.07
2022-08-05T02:18:31.307Z,68.17
2022-08-05T02:21:15.299Z,68.20
2022-08-05T02:24:05.917Z,68.18
2022-08-05T02:27:09.831Z,68.17
2022-08-05T02:29:59.751Z,68.33
2022-08-05T02:32:49.299Z,68.32
2022-08-05T02:35:59.096Z,68.40
2022-08-05T02:39:12.318Z,68.54
2022-08-05T02:42:09.312Z,68.69
2022-08-05T02:44:56.621Z,68.70
2022-08-05T02:48:07.282Z,68.84
2022-08-05T02:50:52.733Z,68.88
2022-08-05T02:54:04.451Z,69.04
2022-08-05T02:56:50.486Z,69.17
2022-08-05T03:00:04.050Z,69.23
2022-08-05T03:02:50.880Z,69.41
2022-08-05T03:06:55.444Z,69.49
2022-08-05T03:09:17.910Z,69.63
2022-08-05T03:12:11.672Z,69.94
2022-08-05T03:15:24.644Z,70.01
2022-08-05T03:18:08.923Z,70.31
2022-08-05T03:21:21.324Z,70.50
2022-08-05T03:24:30.456Z,70.55
2022-08-05T03:27:17.220Z,70.67
2022-08-05T03:30:08.121Z,70.86
2022-08-05T03:32:41.112Z,71.02
2022-08-05T03:36:00.169Z,71.08
2022-08-05T03:38:33.262Z,71.17
2022-08-05T03:42:27.004Z,71.25
2022-08-05T03:45:58.264Z,71.33
2022-08-05T03:48:48.827Z,71.67
2022-08-05T03:52:48.708Z,71.86
2022-08-05T03:56:04.748Z,71.86
2022-08-05T03:58:29.123Z,72.02
2022-08-05T04:01:04.241Z,72.07
2022-08-05T04:03:38.712Z,72.18
2022-08-05T04:06:13.798Z,72.16
2022-08-05T04:08:49.047Z,72.14
2022-08-05T04:11:50.629Z,72.48
2022-08-05T04:14:30.622Z,72.49
2022-08-05T04:17:23.203Z,72.48
2022-08-05T04:20:23.101Z,72.51
2022-08-05T04:23:08.197Z,72.51
2022-08-05T04:26:00.733Z,72.62
2022-08-05T04:28:51.380Z,72.69
2022-08-05T04:31:38.445Z,72.66
2022-08-05T04:34:35.230Z,72.67
2022-08-05T04:38:01.061Z,72.86
2022-08-05T04:40:50.875Z,73.01
2022-08-05T04:43:48.037Z,73.08
2022-08-05T04:46:39.451Z,73.32
2022-08-05T04:50:00.888Z,73.44
2022-08-05T04:52:47.761Z,73.66
2022-08-05T04:56:33.408Z,73.80
2022-08-05T04:58:35.875Z,74.13
2022-08-05T05:02:05.827Z,74.17
2022-08-05T05:04:51.504Z,74.24
2022-08-05T05:07:45.792Z,74.28
2022-08-05T05:10:55.858Z,74.33
2022-08-05T05:13:47.270Z,74.47
2022-08-05T05:17:00.541Z,74.53
2022-08-05T05:20:03.511Z,74.29
2022-08-05T05:22:47.169Z,74.24
2022-08-05T05:25:40.942Z,74.25
2022-08-05T05:28:22.147Z,74.33
2022-08-05T05:30:57.098Z,74.27
2022-08-05T05:33:59.872Z,74.26
2022-08-05T05:36:55.353Z,74.47
2022-08-05T05:39:47.030Z,74.46
2022-08-05T05:42:51.229Z,74.23
2022-08-05T05:45:27.026Z,74.14
2022-08-05T05:48:08.595Z,74.25
2022-08-05T05:51:25.514Z,74.18
2022-08-05T05:54:17.488Z,74.13
2022-08-05T05:57:13.780Z,74.21
2022-08-05T06:00:00.762Z,74.15
2022-08-05T06:02:43.436Z,74.10
2022-08-05T06:05:27.911Z,74.12
2022-08-05T06:08:12.402Z,74.39
2022-08-05T06:10:56.547Z,74.14
2022-08-05T06:14:42.651Z,74.33
2022-08-05T06:17:52.747Z,74.37
2022-08-05T06:20:47.961Z,74.15
2022-08-05T06:23:44.006Z,74.09
2022-08-05T06:26:39.443Z,74.00
2022-08-05T06:29:46.799Z,73.77
2022-08-05T06:32:47.117Z,73.98
2022-08-05T06:36:08.168Z,73.94
2022-08-05T06:38:58.381Z,73.88
2022-08-05T06:41:52.851Z,73.73
2022-08-05T06:44:27.898Z,73.48
2022-08-05T06:48:37.107Z,73.33
2022-08-05T06:52:04.121Z,73.15
2022-08-05T06:55:00.551Z,73.12
2022-08-05T06:57:57.676Z,73.01
2022-08-05T07:00:51.172Z,72.95
2022-08-05T07:03:42.419Z,72.85
2022-08-05T07:06:20.743Z,72.81
2022-08-05T07:09:12.348Z,72.55
2022-08-05T07:11:51.728Z,72.13
2022-08-05T07:14:49.121Z,71.58
2022-08-05T07:18:01.614Z,71.48
2022-08-05T07:20:50.818Z,70.76
2022-08-05T07:23:29.545Z,70.47
2022-08-05T07:26:13.995Z,69.95
2022-08-05T07:28:52.093Z,69.90
2022-08-05T07:31:54.558Z,69.52
2022-08-05T07:34:42.397Z,69.30
2022-08-05T07:37:21.249Z,69.01
2022-08-05T07:40:26.498Z,68.76
2022-08-05T07:43:24.932Z,67.89
2022-08-05T07:46:24.285Z,67.69
2022-08-05T07:49:05.358Z,68.00
2022-08-05T07:51:53.734Z,67.21
2022-08-05T08:02:16.733Z,65.67
2022-08-05T08:04:52.166Z,65.13
2022-08-05T08:07:59.544Z,65.04
2022-08-05T08:10:35.588Z,64.54
2022-08-05T08:13:09.585Z,64.42
2022-08-05T08:16:50.438Z,63.87
2022-08-05T08:18:35.930Z,63.45
2022-08-05T08:21:29.611Z,63.24
2022-08-05T08:24:05.175Z,62.23
2022-08-05T08:26:37.970Z,60.99
2022-08-05T08:30:03.606Z,59.80
2022-08-05T08:32:04.642Z,58.69
2022-08-05T08:34:42.780Z,57.14
2022-08-05T08:37:18.908Z,55.99
2022-08-05T08:39:50.769Z,55.62
2022-08-05T08:42:33.735Z,55.24
2022-08-05T08:45:23.752Z,54.03
2022-08-05T08:48:10.445Z,53.49
2022-08-05T08:51:07.717Z,52.83
2022-08-05T08:53:46.587Z,50.99
2022-08-05T08:56:19.586Z,49.64
2022-08-05T08:58:54.128Z,49.16
2022-08-05T09:01:25.791Z,48.94
2022-08-05T09:03:58.742Z,47.81
2022-08-05T09:06:33.317Z,46.20
2022-08-05T09:09:07.869Z,45.99
2022-08-05T09:11:53.341Z,43.76
2022-08-05T09:14:56.402Z,41.76
2022-08-05T09:17:42.860Z,40.88
2022-08-05T09:20:36.354Z,38.42
2022-08-05T09:23:18.677Z,38.28
2022-08-05T09:26:03.367Z,38.26
2022-08-05T09:28:38.699Z,37.70
2022-08-05T09:31:43.937Z,38.52
2022-08-05T09:34:06.599Z,39.96
2022-08-05T09:36:55.910Z,41.05
2022-08-05T09:39:45.773Z,42.18
2022-08-05T09:42:28.228Z,41.89
2022-08-05T09:45:17.737Z,41.59
2022-08-05T09:48:00.475Z,39.57
2022-08-05T09:50:44.723Z,38.13
2022-08-05T09:53:25.782Z,37.84
2022-08-05T09:56:04.526Z,36.67
2022-08-05T09:58:36.592Z,35.61
2022-08-05T10:01:31.574Z,36.24
2022-08-05T10:04:11.172Z,37.01
2022-08-05T10:06:54.972Z,38.06
2022-08-05T10:09:45.112Z,39.37
2022-08-05T10:12:28.021Z,39.57
2022-08-05T10:15:22.110Z,39.94
2022-08-05T10:18:12.095Z,39.81
2022-08-05T10:20:47.801Z,40.45
2022-08-05T10:23:55.108Z,41.07
2022-08-05T10:26:16.782Z,42.14
2022-08-05T10:28:49.571Z,42.70
2022-08-05T10:33:01.487Z,42.99
2022-08-05T10:34:17.173Z,43.27
2022-08-05T10:36:55.365Z,43.89
2022-08-05T10:39:59.137Z,44.23
2022-08-05T10:42:38.832Z,45.02
2022-08-05T10:45:23.556Z,45.90
2022-08-05T10:48:52.963Z,46.46
2022-08-05T10:52:00.506Z,47.63
2022-08-05T10:55:05.217Z,49.12
2022-08-05T10:57:41.612Z,50.85
2022-08-05T11:00:23.279Z,52.16
2022-08-05T11:03:23.831Z,53.17
2022-08-05T11:06:15.107Z,53.85
2022-08-05T11:09:32.167Z,54.27
2022-08-05T11:12:54.171Z,54.99
2022-08-05T11:16:00.540Z,55.16
2022-08-05T11:18:34.621Z,55.04
2022-08-05T11:21:26.379Z,54.07
2022-08-05T11:24:05.352Z,52.08
2022-08-05T11:27:09.427Z,50.40
2022-08-05T11:29:45.103Z,47.96
2022-08-05T11:32:32.859Z,44.39
2022-08-05T11:36:07.719Z,40.62
2022-08-05T11:38:57.551Z,38.28
2022-08-05T11:41:56.199Z,37.79
2022-08-05T11:44:52.801Z,36.16
2022-08-05T11:47:49.882Z,36.92
2022-08-05T11:50:20.593Z,36.13
2022-08-05T11:52:57.613Z,36.59
2022-08-05T11:55:32.145Z,37.53
2022-08-05T11:58:11.852Z,36.71
2022-08-05T12:00:44.090Z,35.91
2022-08-05T12:03:28.429Z,35.69
2022-08-05T12:06:09.816Z,34.34
2022-08-05T12:08:51.400Z,32.64
2022-08-05T12:11:28.147Z,30.20
2022-08-05T12:14:15.201Z,27.85
2022-08-05T12:16:49.301Z,26.26
2022-08-05T12:20:26.160Z,25.34
2022-08-05T12:27:56.945Z,22.92
2022-08-05T12:30:47.764Z,21.65
2022-08-05T12:33:27.422Z,21.06
2022-08-05T12:36:16.156Z,20.24
2022-08-05T12:38:55.767Z,22.08
2022-08-05T12:41:34.732Z,24.18
2022-08-05T12:44:14.383Z,25.73
2022-08-05T12:46:57.759Z,27.06
2022-08-05T12:50:04.623Z,28.40
2022-08-05T12:52:39.014Z,30.16
2022-08-05T12:55:28.662Z,31.67
2022-08-05T12:58:50.633Z,32.96
2022-08-05T13:02:03.019Z,34.07
2022-08-05T13:03:51.607Z,34.86
2022-08-05T13:06:23.407Z,35.21
2022-08-05T13:08:54.907Z,35.18
2022-08-05T13:12:03.172Z,34.58
2022-08-05T13:14:36.839Z,34.00
2022-08-05T13:17:31.623Z,32.14
2022-08-05T13:20:19.192Z,30.26
2022-08-05T13:23:00.064Z,28.24
2022-08-05T13:25:52.572Z,28.56
2022-08-05T13:28:23.510Z,29.49
2022-08-05T13:30:55.485Z,31.03
2022-08-05T13:34:21.549Z,30.97
2022-08-05T13:36:27.423Z,29.96
2022-08-05T13:40:16.839Z,27.93
2022-08-05T13:42:35.714Z,26.83
2022-08-05T13:45:14.008Z,26.55
2022-08-05T13:48:08.592Z,26.84
2022-08-05T13:50:41.904Z,26.80
2022-08-05T13:53:19.376Z,27.56
2022-08-05T13:56:00.196Z,27.89
2022-08-05T13:58:39.605Z,28.31
2022-08-05T14:01:11.578Z,27.79
2022-08-05T14:03:46.881Z,27.43
2022-08-05T14:06:25.747Z,26.13
2022-08-05T14:09:00.734Z,25.90
2022-08-05T14:12:04.189Z,24.41
2022-08-05T14:14:35.847Z,25.11
2022-08-05T14:17:17.800Z,25.46
2022-08-05T14:19:55.242Z,25.04
2022-08-05T14:22:30.480Z,24.20
2022-08-05T14:25:21.770Z,24.36
2022-08-05T14:27:54.704Z,24.82
2022-08-05T14:30:28.041Z,25.04
2022-08-05T14:33:09.814Z,25.25
2022-08-05T14:35:51.531Z,25.74
2022-08-05T14:38:32.267Z,26.14
2022-08-05T14:41:10.720Z,26.93
2022-08-05T14:43:59.191Z,27.89
2022-08-05T14:46:35.085Z,28.64
2022-08-05T14:49:08.484Z,28.70
2022-08-05T14:51:42.949Z,29.07
2022-08-05T14:54:28.753Z,29.91
2022-08-05T14:57:13.473Z,30.40
2022-08-05T14:59:45.402Z,31.13
2022-08-05T15:02:17.781Z,31.47
2022-08-05T15:04:49.950Z,31.44
2022-08-05T15:08:08.693Z,31.42
2022-08-05T15:10:13.874Z,31.26
2022-08-05T15:13:00.278Z,31.76
2022-08-05T15:15:53.974Z,33.00
2022-08-05T15:18:25.429Z,33.57
2022-08-05T15:21:32.731Z,34.03
2022-08-05T15:24:36.815Z,34.04
2022-08-05T15:27:13.942Z,33.76
2022-08-05T15:29:57.733Z,33.49
2022-08-05T15:32:31.488Z,33.49
2022-08-05T15:35:04.063Z,33.48
2022-08-05T15:38:32.613Z,33.61
2022-08-05T15:40:58.187Z,34.12
2022-08-05T15:43:25.440Z,33.54
2022-08-05T15:46:00.107Z,33.60
2022-08-05T15:48:39.018Z,33.56
2022-08-05T15:52:12.717Z,33.19
2022-08-05T15:54:20.714Z,32.79
2022-08-05T15:57:10.402Z,32.72
2022-08-05T15:59:42.690Z,32.35
2022-08-05T16:02:14.718Z,32.50
2022-08-05T16:04:52.957Z,32.30
2022-08-05T16:07:24.783Z,32.70
2022-08-05T16:10:07.096Z,33.24
2022-08-05T16:12:43.609Z,33.94
2022-08-05T16:15:18.512Z,33.87
2022-08-05T16:17:58.092Z,34.35
2022-08-05T16:20:30.261Z,33.78
2022-08-05T16:23:04.112Z,33.17
2022-08-05T16:25:41.515Z,33.36
2022-08-05T16:28:18.229Z,33.91
2022-08-05T16:30:50.462Z,34.30
2022-08-05T16:33:23.473Z,34.99
2022-08-05T16:36:01.075Z,34.86
2022-08-05T16:38:55.036Z,34.75
2022-08-05T16:42:14.415Z,34.70
2022-08-05T16:44:42.239Z,35.05
2022-08-05T16:47:24.722Z,35.62
2022-08-05T16:50:10.223Z,35.87
2022-08-05T16:52:45.300Z,36.14
2022-08-05T16:55:17.999Z,36.34
2022-08-05T16:58:01.388Z,36.84
2022-08-05T17:00:37.608Z,36.69
2022-08-05T17:03:19.770Z,36.40
2022-08-05T17:05:54.321Z,36.20
2022-08-05T17:08:36.017Z,36.39
2022-08-05T17:11:25.998Z,35.96
2022-08-05T17:14:05.174Z,35.78
2022-08-05T17:16:39.306Z,36.20
2022-08-05T17:19:13.584Z,36.03
2022-08-05T17:21:51.490Z,35.63
2022-08-05T17:24:33.893Z,35.02
2022-08-05T17:27:11.102Z,34.78
2022-08-05T17:29:42.780Z,34.03
2022-08-05T17:32:21.768Z,34.02
2022-08-05T17:34:58.359Z,34.09
2022-08-05T17:37:41.700Z,34.55
2022-08-05T17:40:22.886Z,34.94
2022-08-05T17:42:54.959Z,35.03
2022-08-05T17:45:38.107Z,35.02
2022-08-05T17:48:10.846Z,34.94
2022-08-05T17:50:42.963Z,34.97
2022-08-05T17:53:14.512Z,35.20
2022-08-05T17:55:51.720Z,35.42
2022-08-05T17:58:32.471Z,35.56
2022-08-05T18:01:08.195Z,35.37
2022-08-05T18:03:59.622Z,35.85
2022-08-05T18:06:39.208Z,36.15
2022-08-05T18:09:15.416Z,36.42
2022-08-05T18:11:52.160Z,36.52
2022-08-05T18:14:24.311Z,36.38
2022-08-05T18:16:58.811Z,36.56
2022-08-05T18:19:31.966Z,36.49
2022-08-05T18:22:07.192Z,36.66
2022-08-05T18:24:51.980Z,36.95
2022-08-05T18:27:23.456Z,37.11
2022-08-05T18:29:55.132Z,37.02
2022-08-05T18:32:28.448Z,36.77
2022-08-05T18:35:01.316Z,36.76
2022-08-05T18:37:34.381Z,36.99
2022-08-05T18:40:33.811Z,37.39
2022-08-05T18:43:16.447Z,37.69
2022-08-05T18:45:49.026Z,38.08
2022-08-05T18:48:41.789Z,38.30
2022-08-05T18:52:05.934Z,38.51
2022-08-05T18:54:31.967Z,38.90
2022-08-05T18:57:03.957Z,39.19
2022-08-05T18:59:43.089Z,39.25
2022-08-05T19:02:41.256Z,39.25
2022-08-05T19:06:11.821Z,39.64
2022-08-05T19:08:34.229Z,39.96
2022-08-05T19:11:13.133Z,40.16
2022-08-05T19:13:49.215Z,40.32
2022-08-05T19:16:36.942Z,40.52
2022-08-05T19:19:32.096Z,40.87
2022-08-05T19:22:08.257Z,41.13
2022-08-05T19:24:56.104Z,41.33
2022-08-05T19:27:30.572Z,41.37
2022-08-05T19:30:04.046Z,41.55
2022-08-05T19:32:35.769Z,41.75
2022-08-05T19:35:09.950Z,41.95
2022-08-05T19:38:06.852Z,41.97
2022-08-05T19:40:40.004Z,42.32
2022-08-05T19:43:31.210Z,42.29
2022-08-05T19:46:29.741Z,42.50
2022-08-05T19:49:03.992Z,42.68
2022-08-05T19:52:05.555Z,42.75
2022-08-05T19:54:50.498Z,43.16
2022-08-05T19:57:49.118Z,43.18
2022-08-05T20:00:16.555Z,43.36
2022-08-05T20:02:55.282Z,43.45
2022-08-05T20:05:50.333Z,43.71
2022-08-05T20:08:32.523Z,43.89
2022-08-05T20:11:04.611Z,44.07
2022-08-05T20:13:58.378Z,44.23
2022-08-05T20:16:36.062Z,44.38
2022-08-05T20:19:14.642Z,44.55
2022-08-05T20:21:51.110Z,44.77
2022-08-05T20:24:24.946Z,44.88
2022-08-05T20:27:00.311Z,45.10
2022-08-05T20:29:52.298Z,45.35
2022-08-05T20:32:30.435Z,45.36
2022-08-05T20:35:05.030Z,45.66
2022-08-05T20:38:06.705Z,45.79
2022-08-05T20:40:32.861Z,45.98
2022-08-05T20:43:07.908Z,46.20
2022-08-05T20:45:56.562Z,46.34
2022-08-05T20:48:32.043Z,46.58
2022-08-05T20:51:08.059Z,46.76
2022-08-05T20:53:40.926Z,46.88
2022-08-05T20:56:18.365Z,47.30
2022-08-05T20:59:13.961Z,47.46
2022-08-05T21:01:52.260Z,47.67
2022-08-05T21:04:28.885Z,47.80
2022-08-05T21:07:01.415Z,47.98
2022-08-05T21:09:38.425Z,48.30
2022-08-05T21:13:08.897Z,48.56
2022-08-05T21:15:36.544Z,48.93
2022-08-05T21:18:14.627Z,49.01
2022-08-05T21:21:06.782Z,49.22
2022-08-05T21:23:39.087Z,49.21
2022-08-05T21:26:15.036Z,49.50
2022-08-05T21:28:51.149Z,49.72
2022-08-05T21:31:41.617Z,49.79
2022-08-05T21:34:16.064Z,50.06
2022-08-05T21:36:53.143Z,50.13
2022-08-05T21:39:26.753Z,50.13
2022-08-05T21:42:02.018Z,50.29
2022-08-05T21:44:36.505Z,50.35
2022-08-05T21:47:17.476Z,50.80
2022-08-05T21:50:10.265Z,51.02
2022-08-05T21:52:59.060Z,51.12
2022-08-05T21:56:01.497Z,51.08
2022-08-05T21:58:30.889Z,51.42
2022-08-05T22:01:04.908Z,51.50
2022-08-05T22:03:59.791Z,51.68
2022-08-05T22:06:50.954Z,52.04
2022-08-05T22:09:45.809Z,51.98
2022-08-05T22:12:26.413Z,52.23
2022-08-05T22:15:00.894Z,52.34
2022-08-05T22:17:35.325Z,52.71
2022-08-05T22:20:40.819Z,52.75
2022-08-05T22:24:02.539Z,53.14
2022-08-05T22:28:10.656Z,53.05
2022-08-05T22:30:37.702Z,53.14
2022-08-05T22:33:58.113Z,53.38
2022-08-05T22:36:43.932Z,53.59
2022-08-05T22:39:55.010Z,53.74
2022-08-05T22:42:57.797Z,54.06
2022-08-05T22:45:35.003Z,54.20
2022-08-05T22:48:29.152Z,54.35
2022-08-05T22:51:23.220Z,54.41
2022-08-05T22:54:36.227Z,54.76
2022-08-05T22:57:49.125Z,54.89
2022-08-05T23:00:41.137Z,55.18
2022-08-05T23:03:57.976Z,55.21
2022-08-05T23:06:39.643Z,55.49
2022-08-05T23:10:01.185Z,55.77
2022-08-05T23:13:14.002Z,55.89
2022-08-05T23:15:59.354Z,56.00
2022-08-05T23:18:36.976Z,56.10
2022-08-05T23:21:10.400Z,56.13
2022-08-05T23:23:47.872Z,56.34
2022-08-05T23:26:28.520Z,56.57
2022-08-05T23:29:00.192Z,56.68
2022-08-05T23:32:08.677Z,56.53
2022-08-05T23:35:05.615Z,56.79
2022-08-05T23:38:19.526Z,57.05
2022-08-05T23:41:16.582Z,57.02
2022-08-05T23:44:04.626Z,57.15
2022-08-05T23:46:39.356Z,57.18
2022-08-05T23:49:35.603Z,57.25
2022-08-05T23:52:49.442Z,57.35
2022-08-05T23:56:02.382Z,57.57
2022-08-05T23:59:08.848Z,57.58
